createdAt,value
2022-10-01T00:01:01.186Z,9.17
2022-10-01T00:05:59.990Z,7.47
2022-10-01T00:10:52.843Z,6.50
2022-10-01T00:15:45.401Z,6.60
2022-10-01T00:20:43.503Z,6.47
2022-10-01T00:25:36.139Z,7.67
2022-10-01T00:30:28.805Z,7.33
2022-10-01T00:35:22.285Z,7.90
2022-10-01T00:40:16.205Z,6.80
2022-10-01T00:45:10.244Z,6.10
2022-10-01T00:50:07.003Z,6.47
2022-10-01T00:55:03.307Z,6.10
2022-10-01T00:59:59.936Z,5.77
2022-10-01T01:04:52.512Z,5.90
2022-10-01T01:09:46.423Z,5.63
2022-10-01T01:14:42.932Z,5.50
2022-10-01T01:19:44.740Z,5.37
2022-10-01T01:24:42.807Z,5.43
2022-10-01T01:29:40.492Z,4.60
2022-10-01T01:34:33.653Z,5.10
2022-10-01T01:39:28.019Z,5.30
2022-10-01T01:44:23.822Z,4.70
2022-10-01T01:49:20.490Z,4.60
2022-10-01T01:54:13.057Z,3.70
2022-10-01T01:59:05.995Z,3.80
2022-10-01T02:03:58.563Z,4.17
2022-10-01T02:08:59.082Z,3.83
2022-10-01T02:14:00.052Z,3.90
2022-10-01T02:18:58.063Z,3.00
2022-10-01T02:23:58.110Z,2.97
2022-10-01T02:28:52.229Z,2.97
2022-10-01T02:33:45.079Z,2.87
2022-10-01T02:38:38.574Z,2.60
2022-10-01T02:43:40.622Z,3.03
2022-10-01T02:48:35.998Z,3.07
2022-10-01T02:53:31.414Z,2.80
2022-10-01T02:58:24.008Z,2.90
2022-10-01T03:03:17.900Z,2.70
2022-10-01T03:08:10.425Z,3.10
2022-10-01T03:13:02.982Z,2.93
2022-10-01T03:17:55.904Z,3.03
2022-10-01T03:22:49.804Z,3.03
2022-10-01T03:27:42.452Z,2.90
2022-10-01T03:32:35.207Z,2.90
2022-10-01T03:37:27.777Z,2.80
2022-10-01T03:42:21.643Z,2.80
2022-10-01T03:47:14.245Z,2.63
2022-10-01T03:52:07.318Z,2.67
2022-10-01T03:56:59.919Z,2.87
2022-10-01T04:01:54.083Z,2.70
2022-10-01T04:06:46.698Z,2.83
2022-10-01T04:11:39.520Z,2.63
2022-10-01T04:16:34.864Z,2.50
2022-10-01T04:21:29.021Z,2.80
2022-10-01T04:26:21.547Z,2.93
2022-10-01T04:31:26.424Z,2.50
2022-10-01T04:36:19.020Z,2.80
2022-10-01T04:41:13.777Z,2.80
2022-10-01T04:46:06.424Z,2.60
2022-10-01T04:50:58.977Z,2.97
2022-10-01T04:55:51.508Z,2.77
2022-10-01T05:00:45.469Z,3.10
2022-10-01T05:05:38.913Z,2.80
2022-10-01T05:10:31.451Z,5.93
2022-10-01T05:15:24.077Z,26.20
2022-10-01T05:20:18.854Z,11.60
2022-10-01T05:25:11.382Z,15.00
2022-10-01T05:30:03.894Z,20.03
2022-10-01T05:34:56.357Z,6.50
2022-10-01T05:39:50.383Z,19.70
2022-10-01T05:44:46.191Z,6.13
2022-10-01T05:49:39.663Z,12.40
2022-10-01T05:54:32.185Z,4.23
2022-10-01T05:59:31.010Z,4.30
2022-10-01T06:04:24.279Z,4.10
2022-10-01T06:09:16.875Z,4.17
2022-10-01T06:14:09.414Z,4.43
2022-10-01T06:19:03.775Z,4.53
2022-10-01T06:23:56.257Z,4.10
2022-10-01T06:28:49.831Z,3.33
2022-10-01T06:33:42.330Z,2.87
2022-10-01T06:38:36.162Z,3.90
2022-10-01T06:43:30.041Z,4.63
2022-10-01T06:48:22.833Z,6.40
2022-10-01T06:53:16.176Z,7.20
2022-10-01T06:58:13.493Z,6.13
2022-10-01T07:03:06.504Z,14.30
2022-10-01T07:07:58.991Z,7.43
2022-10-01T07:12:51.895Z,3.50
2022-10-01T07:17:46.312Z,3.30
2022-10-01T07:22:38.789Z,3.77
2022-10-01T07:27:31.266Z,4.10
2022-10-01T07:32:23.758Z,2.70
2022-10-01T07:37:17.608Z,5.60
2022-10-01T07:42:10.539Z,3.80
2022-10-01T07:47:03.015Z,3.77
2022-10-01T07:51:55.837Z,2.93
2022-10-01T07:56:51.926Z,3.70
2022-10-01T08:01:44.504Z,3.03
2022-10-01T08:06:38.951Z,2.97
2022-10-01T08:11:31.929Z,3.10
2022-10-01T08:16:29.158Z,2.70
2022-10-01T08:21:21.869Z,2.60
2022-10-01T08:26:14.408Z,2.60
2022-10-01T08:31:08.997Z,2.23
2022-10-01T08:36:03.487Z,3.30
2022-10-01T08:40:56.076Z,2.93
2022-10-01T08:45:51.019Z,2.93
2022-10-01T08:50:48.118Z,2.80
2022-10-01T08:55:42.799Z,3.10
2022-10-01T09:00:37.026Z,2.80
2022-10-01T09:05:34.051Z,3.70
2022-10-01T09:10:36.298Z,2.80
2022-10-01T09:15:33.069Z,4.40
2022-10-01T09:20:26.968Z,3.60
2022-10-01T09:25:21.578Z,3.20
2022-10-01T09:30:17.232Z,3.10
2022-10-01T09:35:20.185Z,2.30
2022-10-01T09:40:15.843Z,2.53
2022-10-01T09:45:12.094Z,2.40
2022-10-01T09:50:05.841Z,2.10
2022-10-01T09:55:02.876Z,2.67
2022-10-01T09:59:58.026Z,2.07
2022-10-01T10:04:59.675Z,2.13
2022-10-01T10:09:53.121Z,2.90
2022-10-01T10:14:47.193Z,2.40
2022-10-01T10:19:40.094Z,2.00
2022-10-01T10:24:33.616Z,2.20
2022-10-01T10:29:27.298Z,1.67
2022-10-01T10:34:22.701Z,1.80
2022-10-01T10:39:19.383Z,1.83
2022-10-01T10:44:16.169Z,1.67
2022-10-01T10:49:10.807Z,1.73
2022-10-01T10:54:18.160Z,1.80
2022-10-01T10:59:10.691Z,1.73
2022-10-01T11:04:03.937Z,1.60
2022-10-01T11:09:00.355Z,1.60
2022-10-01T11:14:01.596Z,1.70
2022-10-01T11:19:02.424Z,1.67
2022-10-01T11:24:09.651Z,2.10
2022-10-01T11:29:12.054Z,1.40
2022-10-01T11:34:21.653Z,1.50
2022-10-01T11:39:15.544Z,1.67
2022-10-01T11:44:13.925Z,2.00
2022-10-01T11:49:17.898Z,1.80
2022-10-01T11:54:12.600Z,1.60
2022-10-01T11:59:07.164Z,1.80
2022-10-01T12:04:04.694Z,1.90
2022-10-01T12:08:59.992Z,1.60
2022-10-01T12:13:55.308Z,1.57
2022-10-01T12:18:51.262Z,1.33
2022-10-01T12:23:48.345Z,1.50
2022-10-01T12:28:49.157Z,1.50
2022-10-01T12:33:53.881Z,1.40
2022-10-01T12:38:55.489Z,1.50
2022-10-01T12:44:09.054Z,1.40
2022-10-01T12:49:07.589Z,1.50
2022-10-01T12:54:13.370Z,1.50
2022-10-01T12:59:12.771Z,1.40
2022-10-01T13:04:14.838Z,1.20
2022-10-01T13:09:12.752Z,1.30
2022-10-01T13:14:07.233Z,1.30
2022-10-01T13:19:04.191Z,1.30
2022-10-01T13:23:58.643Z,1.33
2022-10-01T13:29:01.754Z,1.20
2022-10-01T13:33:54.658Z,1.30
2022-10-01T13:38:47.955Z,1.20
2022-10-01T13:43:47.322Z,1.40
2022-10-01T13:48:49.854Z,1.63
2022-10-01T13:53:49.992Z,1.57
2022-10-01T13:58:43.785Z,1.53
2022-10-01T14:03:45.417Z,1.87
2022-10-01T14:08:41.613Z,1.27
2022-10-01T14:13:55.263Z,1.50
2022-10-01T14:18:49.633Z,1.47
2022-10-01T14:23:46.042Z,1.33
2022-10-01T14:28:49.841Z,1.20
2022-10-01T14:34:00.938Z,1.50
2022-10-01T14:39:03.383Z,1.90
2022-10-01T14:43:55.931Z,1.50
2022-10-01T14:48:57.346Z,1.50
2022-10-01T14:53:51.624Z,1.60
2022-10-01T14:58:45.378Z,1.13
2022-10-01T15:03:38.480Z,1.57
2022-10-01T15:08:37.979Z,1.50
2022-10-01T15:13:33.773Z,1.70
2022-10-01T15:18:26.566Z,1.60
2022-10-01T15:23:19.107Z,1.70
2022-10-01T15:28:14.450Z,1.33
2022-10-01T15:33:14.165Z,1.50
2022-10-01T15:38:06.770Z,1.70
2022-10-01T15:43:29.229Z,1.40
2022-10-01T15:48:30.561Z,1.40
2022-10-01T15:53:23.423Z,1.43
2022-10-01T15:58:17.988Z,1.40
2022-10-01T16:03:18.039Z,1.50
2022-10-01T16:08:18.753Z,1.40
2022-10-01T16:13:38.250Z,1.30
2022-10-01T16:18:32.800Z,1.67
2022-10-01T16:23:36.524Z,1.93
2022-10-01T16:28:30.220Z,3.13
2022-10-01T16:33:22.774Z,1.77
2022-10-01T16:38:15.583Z,6.63
2022-10-01T16:43:15.009Z,3.20
2022-10-01T16:48:12.964Z,1.80
2022-10-01T16:53:05.456Z,2.17
2022-10-01T16:57:57.953Z,2.43
2022-10-01T17:02:51.793Z,4.60
2022-10-01T17:07:44.928Z,3.27
2022-10-01T17:12:37.405Z,3.80
2022-10-01T17:17:29.910Z,3.83
2022-10-01T17:22:24.084Z,2.40
2022-10-01T17:27:16.586Z,2.17
2022-10-01T17:32:09.142Z,2.17
2022-10-01T17:37:01.676Z,5.10
2022-10-01T17:41:55.569Z,2.20
2022-10-01T17:46:48.197Z,1.77
2022-10-01T17:51:40.703Z,1.57
2022-10-01T17:56:33.584Z,1.70
2022-10-01T18:01:27.873Z,1.90
2022-10-01T18:06:20.415Z,1.80
2022-10-01T18:11:13.072Z,1.50
2022-10-01T18:16:06.823Z,1.77
2022-10-01T18:21:03.794Z,1.83
2022-10-01T18:25:56.397Z,1.80
2022-10-01T18:30:49.139Z,1.70
2022-10-01T18:35:44.020Z,4.17
2022-10-01T18:40:43.251Z,1.40
2022-10-01T18:45:45.248Z,1.43
2022-10-01T18:50:41.132Z,1.57
2022-10-01T18:55:41.215Z,1.70
2022-10-01T19:00:37.620Z,1.70
2022-10-01T19:05:54.002Z,14.13
2022-10-01T19:10:49.625Z,9.10
2022-10-01T19:15:47.187Z,5.70
2022-10-01T19:20:49.689Z,3.67
2022-10-01T19:25:44.521Z,2.80
2022-10-01T19:30:42.879Z,1.83
2022-10-01T19:35:38.639Z,2.20
2022-10-01T19:40:34.400Z,2.50
2022-10-01T19:45:29.838Z,2.87
2022-10-01T19:50:25.036Z,2.07
2022-10-01T19:55:21.073Z,3.20
2022-10-01T20:00:17.489Z,2.43
2022-10-01T20:05:13.026Z,2.30
2022-10-01T20:10:08.609Z,2.73
2022-10-01T20:15:09.893Z,2.30
2022-10-01T20:20:04.871Z,2.10
2022-10-01T20:25:01.399Z,2.20
2022-10-01T20:29:57.351Z,2.00
2022-10-01T20:35:00.564Z,1.87
2022-10-01T20:39:56.575Z,1.90
2022-10-01T20:44:49.254Z,1.97
2022-10-01T20:49:44.203Z,2.00
2022-10-01T20:54:41.857Z,1.77
2022-10-01T20:59:37.677Z,2.17
2022-10-01T21:04:33.148Z,1.93
2022-10-01T21:09:27.824Z,2.10
2022-10-01T21:14:23.072Z,1.67
2022-10-01T21:19:23.148Z,1.97
2022-10-01T21:24:22.197Z,2.20
2022-10-01T21:29:22.108Z,2.63
2022-10-01T21:34:19.473Z,2.10
2022-10-01T21:39:12.748Z,2.00
2022-10-01T21:44:26.030Z,1.90
2022-10-01T21:49:27.884Z,2.00
2022-10-01T21:54:29.328Z,2.20
2022-10-01T21:59:29.512Z,2.00
2022-10-01T22:04:27.197Z,2.10
2022-10-01T22:09:23.624Z,2.10
2022-10-01T22:14:17.288Z,1.97
2022-10-01T22:19:12.052Z,2.07
2022-10-01T22:24:08.442Z,2.03
2022-10-01T22:29:02.849Z,2.10
2022-10-01T22:33:57.652Z,2.40
2022-10-01T22:38:53.742Z,1.90
2022-10-01T22:43:47.608Z,1.80
2022-10-01T22:48:45.956Z,2.13
2022-10-01T22:53:48.128Z,2.10
2022-10-01T22:58:48.877Z,2.00
2022-10-01T23:03:48.709Z,2.23
2022-10-01T23:08:45.795Z,2.00
2022-10-01T23:13:42.373Z,2.50
2022-10-01T23:18:40.272Z,1.90
2022-10-01T23:23:34.455Z,2.27
2022-10-01T23:28:32.090Z,2.07
2022-10-01T23:33:33.589Z,2.20
2022-10-01T23:38:35.907Z,2.27
2022-10-01T23:43:32.429Z,2.37
2022-10-01T23:48:29.121Z,2.20
2022-10-01T23:53:23.487Z,2.40
2022-10-01T23:58:16.888Z,2.20
